Time,TemperatureF,DewpointF,PressureIn,WindDirection,WindDirectionDegrees,WindSpeedMPH,WindSpeedGustMPH,Humidity,HourlyPrecipIn,Conditions,Clouds,dailyrainin,SolarRadiationWatts/m^2,SoftwareType,DateUTC
2013-05-14 00:00:00,56.0,55.0,-100.00,West,268,0.0,-999.0,96,-99.99,,,-99.99,0.000000,,2013-05-14 05:00:00,
2013-05-14 00:52:00,56.0,55.0,-100.00,West,268,0.0,-999.0,96,-99.99,,,-99.99,0.000000,,2013-05-14 05:52:00,
2013-05-14 03:00:00,54.0,53.0,-100.00,West,270,0.0,-999.0,97,-99.99,,,-99.99,0.000000,,2013-05-14 08:00:00,
2013-05-14 03:52:00,54.0,53.0,-100.00,West,270,0.0,-999.0,97,-99.99,,,-99.99,0.000000,,2013-05-14 08:52:00,
2013-05-14 04:00:00,53.0,52.0,-100.00,North,0,0.0,-999.0,97,-99.99,,,-99.99,0.010000,,2013-05-14 09:00:00,
2013-05-14 04:54:00,53.0,52.0,-100.00,North,0,0.0,-999.0,97,-99.99,,,-99.99,0.010000,,2013-05-14 09:54:00,
2013-05-14 06:00:00,51.0,51.0,-100.00,North,351,0.0,-999.0,98,-99.99,,,-99.99,0.470000,,2013-05-14 11:00:00,
2013-05-14 06:53:00,51.0,51.0,-100.00,North,351,0.0,-999.0,98,-99.99,,,-99.99,0.470000,,2013-05-14 11:53:00,
2013-05-14 07:00:00,53.0,53.0,-100.00,NNE,13,0.0,-999.0,98,-99.99,,,-99.99,19.480000,,2013-05-14 12:00:00,
2013-05-14 07:52:00,53.0,53.0,-100.00,NNE,13,0.0,-999.0,98,-99.99,,,-99.99,19.480000,,2013-05-14 12:52:00,
2013-05-14 08:00:00,64.0,60.0,-100.00,SW,221,0.0,-999.0,86,-99.99,,,-99.99,225.059998,,2013-05-14 13:00:00,
2013-05-14 08:52:00,64.0,60.0,-100.00,SW,221,0.0,-999.0,86,-99.99,,,-99.99,225.059998,,2013-05-14 13:52:00,
2013-05-14 09:00:00,73.0,59.0,-100.00,NW,313,0.0,-999.0,61,-99.99,,,-99.99,414.579987,,2013-05-14 14:00:00,
2013-05-14 09:52:00,73.0,59.0,-100.00,NW,313,0.0,-999.0,61,-99.99,,,-99.99,414.579987,,2013-05-14 14:52:00,
2013-05-14 10:00:00,77.0,52.0,-100.00,North,9,1.0,-999.0,43,-99.99,,,-99.99,589.479980,,2013-05-14 15:00:00,
2013-05-14 10:53:00,77.0,52.0,-100.00,North,9,1.0,-999.0,43,-99.99,,,-99.99,589.479980,,2013-05-14 15:53:00,
2013-05-14 11:00:00,79.0,52.0,-100.00,SW,217,2.0,-999.0,39,-99.99,,,-99.99,733.400024,,2013-05-14 16:00:00,
2013-05-14 11:54:00,79.0,52.0,-100.00,SW,217,2.0,-999.0,39,-99.99,,,-99.99,733.400024,,2013-05-14 16:54:00,
2013-05-14 12:00:00,81.0,52.0,-100.00,South,172,3.0,-999.0,36,-99.99,,,-99.99,823.650024,,2013-05-14 17:00:00,
2013-05-14 12:52:00,81.0,52.0,-100.00,South,172,3.0,-999.0,36,-99.99,,,-99.99,823.650024,,2013-05-14 17:52:00,
2013-05-14 13:00:00,80.0,52.0,-100.00,SSW,206,6.0,-999.0,37,-99.99,,,-99.99,867.349976,,2013-05-14 18:00:00,
2013-05-14 13:52:00,80.0,52.0,-100.00,SSW,206,6.0,-999.0,37,-99.99,,,-99.99,867.349976,,2013-05-14 18:52:00,
2013-05-14 14:00:00,80.0,52.0,-100.00,SSW,202,6.0,-999.0,38,-99.99,,,-99.99,859.750000,,2013-05-14 19:00:00,
2013-05-14 14:53:00,80.0,52.0,-100.00,SSW,202,6.0,-999.0,38,-99.99,,,-99.99,859.750000,,2013-05-14 19:53:00,
2013-05-14 15:00:00,80.0,53.0,-100.00,SSW,210,7.0,-999.0,39,-99.99,,,-99.99,796.099976,,2013-05-14 20:00:00,
2013-05-14 15:52:00,80.0,53.0,-100.00,SSW,210,7.0,-999.0,39,-99.99,,,-99.99,796.099976,,2013-05-14 20:52:00,
2013-05-14 16:00:00,79.0,52.0,-100.00,SSW,211,7.0,-999.0,40,-99.99,,,-99.99,684.950012,,2013-05-14 21:00:00,
2013-05-14 16:53:00,79.0,52.0,-100.00,SSW,211,7.0,-999.0,40,-99.99,,,-99.99,684.950012,,2013-05-14 21:53:00,
2013-05-14 17:00:00,77.0,56.0,-100.00,SSW,198,6.0,-999.0,47,-99.99,,,-99.99,527.349976,,2013-05-14 22:00:00,
2013-05-14 17:54:00,77.0,56.0,-100.00,SSW,198,6.0,-999.0,47,-99.99,,,-99.99,527.349976,,2013-05-14 22:54:00,
2013-05-14 18:00:00,75.0,58.0,-100.00,SSW,195,6.0,-999.0,54,-99.99,,,-99.99,333.070007,,2013-05-14 23:00:00,
2013-05-14 18:53:00,75.0,58.0,-100.00,SSW,195,6.0,-999.0,54,-99.99,,,-99.99,333.070007,,2013-05-14 23:53:00,
2013-05-14 19:00:00,72.0,60.0,-100.00,SSW,200,6.0,-999.0,65,-99.99,,,-99.99,143.929993,,2013-05-15 00:00:00,
2013-05-14 19:52:00,72.0,60.0,-100.00,SSW,200,6.0,-999.0,65,-99.99,,,-99.99,143.929993,,2013-05-15 00:52:00,
2013-05-14 20:00:00,68.0,60.0,-100.00,South,191,3.0,-999.0,76,-99.99,,,-99.99,13.440000,,2013-05-15 01:00:00,
2013-05-14 21:00:00,66.0,61.0,-100.00,South,185,0.0,-999.0,84,-99.99,,,-99.99,0.000000,,2013-05-15 02:00:00,
2013-05-14 21:52:00,66.0,61.0,-100.00,South,185,0.0,-999.0,84,-99.99,,,-99.99,0.000000,,2013-05-15 02:52:00,
2013-05-14 22:00:00,62.0,60.0,-100.00,North,0,0.0,-999.0,92,-99.99,,,-99.99,0.000000,,2013-05-15 03:00:00,
2013-05-14 22:54:00,62.0,60.0,-100.00,North,0,0.0,-999.0,92,-99.99,,,-99.99,0.000000,,2013-05-15 03:54:00,
2013-05-14 23:00:00,61.0,59.0,-100.00,SSE,160,0.0,-999.0,93,-99.99,,,-99.99,0.000000,,2013-05-15 04:00:00,
2013-05-14 23:52:00,61.0,59.0,-100.00,SSE,160,0.0,-999.0,93,-99.99,,,-99.99,0.000000,,2013-05-15 04:52:00,